LEBL/BCN METAR and TAF weather

Enter ICAO airport designator
Station Type Date Time Source
LEBL METAR 2019/05/20 10:30 UTC NOAA

LEBL 201030Z 34006G19KT 290V010 9999 FEW030 19/09 Q1012 NOSIG


Station Type Date Time Source
LEBL Decoded METAR 2019/05/20 10:30 UTC NOAA

Barcelona / Aeropuerto, Spain (LEBL) 41-17N 002-04E 6M
May 20, 2019 - 06:30 AM EDT / 2019.05.20 1030 UTC
Wind: from the NNW (340 degrees) at 7 MPH (6 KT) gusting to 22 MPH (19 KT) (direction variable):0
Visibility: greater than 7 mile(s):0
Sky conditions: mostly clear
Temperature: 66 F (19 C)
Dew Point: 48 F (9 C)
Relative Humidity: 52%
Pressure (altimeter): 29.88 in. Hg (1012 hPa)
ob: LEBL 201030Z 34006G19KT 290V010 9999 FEW030 19/09 Q1012 NOSIG
cycle: 10

Station Type Date Time Source
LEBL TAF 2019/05/20 06:27 UTC NOAA

TAF LEBL 200500Z 2006/2106 33008KT 9999 SCT030 TX20/2012Z TN12/2006Z
BECMG 2009/2011 18008KT
BECMG 2018/2020 04005KT
BECMG 2020/2022 35005KT

Example: see airport list